Los Angeles, California
Current Conditions -  °F | °C
As of 6:47 PM on Friday 28 Nov 2014 (Local Time) from KCQT Reporting Station
Clear Clear  
Wind Chill: 63°   Ceiling: Unl
Heat Index: 63°   Visibility: 10mi
Dew Point: 49°   Wind: 0mph
Humidity: 60%   Direction: NA
Pressure: 29.89"   Gusts: NA
Location:  34.05°N, 118.24°W
Report Text: KCQT 290247Z AUTO 00000KT 10SM CLR 17/09 A2989 RMK AO2 SLP121 T01720094 53004
Loading
Personal Weather Stations






























Interactive Weather Map New forecast layout! Learn more

10-Day Weather Forecast

Advertisements
Track Severe Weather on mobile